Time,TemperatureF,DewpointF,PressureIn,WindDirection,WindDirectionDegrees,WindSpeedMPH,WindSpeedGustMPH,Humidity,HourlyPrecipIn,Conditions,Clouds,dailyrainin,SolarRadiationWatts/m^2,SoftwareType,DateUTC
2013-02-04 04:05:00,44.3,42.7,30.01,South,169,0.0,6.0,94,0.00,,,0.00,0,Wunderground v.1.15,2013-02-04 10:05:00,
2013-02-04 04:09:00,44.3,43.0,30.01,South,169,0.0,6.0,95,0.00,,,0.00,0,Wunderground v.1.15,2013-02-04 10:09:00,
2013-02-04 04:14:00,44.5,43.2,30.00,South,169,0.0,6.0,95,0.00,,,0.00,0,Wunderground v.1.15,2013-02-04 10:14:00,
2013-02-04 04:25:00,44.8,43.5,30.00,South,169,0.0,0.0,95,0.00,,,0.00,0,Wunderground v.1.15,2013-02-04 10:25:00,
2013-02-04 04:30:00,44.9,43.6,30.00,South,169,0.0,0.0,95,0.00,,,0.00,0,Wunderground v.1.15,2013-02-04 10:30:00,
2013-02-04 04:39:00,45.2,43.9,30.00,South,169,0.0,0.0,95,0.00,,,0.00,0,Wunderground v.1.15,2013-02-04 10:39:00,
2013-02-04 04:44:00,45.3,44.0,30.00,South,169,0.0,0.0,95,0.00,,,0.00,0,Wunderground v.1.15,2013-02-04 10:44:00,
2013-02-04 04:50:00,45.3,44.0,30.00,South,169,0.0,0.0,95,0.00,,,0.00,0,Wunderground v.1.15,2013-02-04 10:50:00,
2013-02-04 05:00:00,45.4,43.8,30.00,South,169,0.0,0.0,94,0.00,,,0.00,0,Wunderground v.1.15,2013-02-04 11:00:00,
2013-02-04 05:09:00,45.7,44.4,30.00,South,169,0.0,0.0,95,0.00,,,0.00,0,Wunderground v.1.15,2013-02-04 11:09:00,
2013-02-04 05:14:00,45.8,44.4,30.00,South,169,0.0,0.0,95,0.00,,,0.00,0,Wunderground v.1.15,2013-02-04 11:14:00,
2013-02-04 05:20:00,45.9,44.5,30.00,South,169,0.0,0.0,95,0.00,,,0.00,0,Wunderground v.1.15,2013-02-04 11:20:00,
2013-02-04 05:29:00,46.1,44.7,30.00,South,169,0.0,0.0,95,0.00,,,0.00,0,Wunderground v.1.15,2013-02-04 11:29:00,
2013-02-04 05:35:00,46.2,44.6,30.01,South,169,0.0,0.0,94,0.00,,,0.00,0,Wunderground v.1.15,2013-02-04 11:35:00,
2013-02-04 05:40:00,46.3,44.7,30.00,South,169,0.0,0.0,94,0.00,,,0.00,0,Wunderground v.1.15,2013-02-04 11:40:00,
2013-02-04 05:45:00,46.4,44.8,30.00,South,169,0.0,0.0,94,0.00,,,0.00,0,Wunderground v.1.15,2013-02-04 11:45:00,
2013-02-04 05:54:00,46.7,45.1,30.00,South,169,0.0,0.0,94,0.00,,,0.00,0,Wunderground v.1.15,2013-02-04 11:54:00,
2013-02-04 05:59:00,46.8,44.9,30.00,South,169,0.0,0.0,93,0.00,,,0.00,0,Wunderground v.1.15,2013-02-04 11:59:00,
2013-02-04 06:05:00,46.9,45.0,30.00,South,169,0.0,0.0,93,0.00,,,0.00,0,Wunderground v.1.15,2013-02-04 12:05:00,
2013-02-04 06:15:00,46.9,45.0,30.00,South,169,0.0,0.0,93,0.00,,,0.00,0,Wunderground v.1.15,2013-02-04 12:15:00,
2013-02-04 06:24:00,47.0,45.1,30.00,South,169,0.0,0.0,93,0.00,,,0.00,0,Wunderground v.1.15,2013-02-04 12:24:00,
2013-02-04 06:29:00,47.1,45.2,30.00,South,169,0.0,0.0,93,0.00,,,0.00,0,Wunderground v.1.15,2013-02-04 12:29:00,
2013-02-04 06:35:00,47.2,45.3,30.00,South,169,0.0,0.0,93,0.00,,,0.00,0,Wunderground v.1.15,2013-02-04 12:35:00,
2013-02-04 06:40:00,47.4,45.5,30.00,South,169,0.0,0.0,93,0.00,,,0.00,0,Wunderground v.1.15,2013-02-04 12:40:00,
2013-02-04 06:45:00,47.4,45.5,30.00,South,169,0.0,0.0,93,0.00,,,0.00,0,Wunderground v.1.15,2013-02-04 12:45:00,
2013-02-04 06:50:00,47.4,45.5,29.99,South,169,0.0,0.0,93,0.00,,,0.00,0,Wunderground v.1.15,2013-02-04 12:50:00,
2013-02-04 06:59:00,47.6,46.0,30.00,South,169,0.0,0.0,94,0.00,,,0.00,0,Wunderground v.1.15,2013-02-04 12:59:00,
2013-02-04 07:05:00,47.8,46.2,30.00,South,169,0.0,0.0,94,0.00,,,0.00,0,Wunderground v.1.15,2013-02-04 13:05:00,
2013-02-04 07:10:00,47.9,46.3,30.00,South,169,0.0,0.0,94,0.00,,,0.00,0,Wunderground v.1.15,2013-02-04 13:10:00,
2013-02-04 07:15:00,48.0,46.4,30.00,South,169,0.0,0.0,94,0.00,,,0.00,0,Wunderground v.1.15,2013-02-04 13:15:00,
2013-02-04 07:24:00,48.3,46.7,30.00,South,169,0.0,0.0,94,0.00,,,0.00,0,Wunderground v.1.15,2013-02-04 13:24:00,
2013-02-04 07:29:00,48.4,46.8,30.00,South,169,0.0,0.0,94,0.00,,,0.00,5,Wunderground v.1.15,2013-02-04 13:29:00,
2013-02-04 07:35:00,48.5,46.9,30.00,South,169,0.0,0.0,94,0.00,,,0.00,11,Wunderground v.1.15,2013-02-04 13:35:00,
2013-02-04 07:40:00,48.5,46.9,30.00,South,169,0.0,0.0,94,0.00,,,0.00,12,Wunderground v.1.15,2013-02-04 13:40:00,
2013-02-04 07:45:00,48.6,47.0,30.00,South,169,0.0,0.0,94,0.00,,,0.00,9,Wunderground v.1.15,2013-02-04 13:45:00,
2013-02-04 07:54:00,49.1,47.7,30.00,ESE,110,0.0,0.0,95,0.00,,,0.00,12,Wunderground v.1.15,2013-02-04 13:54:00,
2013-02-04 08:04:00,49.7,48.3,30.00,ESE,110,0.0,0.0,95,0.00,,,0.00,26,Wunderground v.1.15,2013-02-04 14:04:00,
2013-02-04 08:10:00,49.9,48.5,30.00,ESE,110,0.0,0.0,95,0.00,,,0.00,25,Wunderground v.1.15,2013-02-04 14:10:00,
2013-02-04 08:15:00,50.2,48.8,30.00,ESE,110,0.0,0.0,95,0.00,,,0.00,26,Wunderground v.1.15,2013-02-04 14:15:00,
2013-02-04 08:24:00,50.8,49.4,30.00,ESE,117,0.0,0.0,95,0.00,,,0.00,26,Wunderground v.1.15,2013-02-04 14:24:00,
2013-02-04 08:29:00,51.0,49.6,30.00,ESE,123,0.0,0.0,95,0.00,,,0.00,25,Wunderground v.1.15,2013-02-04 14:29:00,
2013-02-04 08:34:00,51.2,49.8,30.00,ESE,123,0.0,0.0,95,0.00,,,0.00,26,Wunderground v.1.15,2013-02-04 14:34:00,
2013-02-04 08:40:00,51.4,50.0,30.00,ESE,123,0.0,0.0,95,0.00,,,0.00,30,Wunderground v.1.15,2013-02-04 14:40:00,
2013-02-04 08:45:00,51.7,50.3,30.00,ESE,123,0.0,0.0,95,0.00,,,0.00,39,Wunderground v.1.15,2013-02-04 14:45:00,
2013-02-04 08:54:00,52.3,50.6,30.01,ESE,123,0.0,0.0,94,0.00,,,0.00,58,Wunderground v.1.15,2013-02-04 14:54:00,
2013-02-04 08:59:00,52.6,50.9,30.01,ESE,123,0.0,0.0,94,0.00,,,0.00,72,Wunderground v.1.15,2013-02-04 14:59:00,
2013-02-04 09:05:00,53.0,51.3,30.00,ESE,123,0.0,0.0,94,0.00,,,0.00,97,Wunderground v.1.15,2013-02-04 15:05:00,
2013-02-04 09:14:00,54.0,52.0,30.00,ESE,123,0.0,0.0,93,0.00,,,0.00,100,Wunderground v.1.15,2013-02-04 15:14:00,
2013-02-04 09:19:00,54.6,52.6,30.00,ESE,123,0.0,0.0,93,0.00,,,0.00,95,Wunderground v.1.15,2013-02-04 15:19:00,
2013-02-04 09:25:00,55.1,52.8,30.00,ESE,123,0.0,0.0,92,0.00,,,0.00,149,Wunderground v.1.15,2013-02-04 15:25:00,
2013-02-04 09:30:00,55.7,53.4,30.00,ESE,123,0.0,0.0,92,0.00,,,0.00,148,Wunderground v.1.15,2013-02-04 15:30:00,
2013-02-04 09:39:00,56.7,53.8,30.01,ESE,123,0.0,0.0,90,0.00,,,0.00,167,Wunderground v.1.15,2013-02-04 15:39:00,
2013-02-04 09:44:00,57.1,54.2,30.01,ESE,123,0.0,0.0,90,0.00,,,0.00,118,Wunderground v.1.15,2013-02-04 15:44:00,
2013-02-04 09:49:00,57.5,54.3,30.01,SE,124,0.0,0.0,89,0.00,,,0.00,120,Wunderground v.1.15,2013-02-04 15:49:00,
2013-02-04 09:55:00,57.9,54.4,30.01,SE,126,0.0,0.0,88,0.00,,,0.00,162,Wunderground v.1.15,2013-02-04 15:55:00,
2013-02-04 10:00:00,58.3,54.8,30.00,SE,126,0.0,0.0,88,0.00,,,0.00,162,Wunderground v.1.15,2013-02-04 16:00:00,
2013-02-04 10:09:00,59.0,55.1,30.00,SE,126,0.0,0.0,87,0.00,,,0.00,171,Wunderground v.1.15,2013-02-04 16:09:00,
2013-02-04 10:14:00,59.4,55.5,30.00,SE,129,0.0,0.0,87,0.00,,,0.00,183,Wunderground v.1.15,2013-02-04 16:14:00,
2013-02-04 10:19:00,59.8,55.9,30.00,SE,130,0.0,0.0,87,0.00,,,0.00,195,Wunderground v.1.15,2013-02-04 16:19:00,
2013-02-04 10:29:00,60.7,56.8,30.00,SE,134,0.0,0.0,87,0.00,,,0.00,276,Wunderground v.1.15,2013-02-04 16:29:00,
2013-02-04 10:39:00,61.8,56.6,30.00,SSE,147,1.0,1.0,83,0.00,,,0.00,297,Wunderground v.1.15,2013-02-04 16:39:00,
2013-02-04 10:44:00,62.3,57.4,30.00,South,184,1.0,3.0,84,0.00,,,0.00,338,Wunderground v.1.15,2013-02-04 16:44:00,
2013-02-04 10:50:00,62.8,57.2,29.99,SSE,160,2.0,2.0,82,0.00,,,0.00,250,Wunderground v.1.15,2013-02-04 16:50:00,
2013-02-04 10:55:00,63.2,57.6,29.99,ESE,123,2.0,3.0,82,0.00,,,0.00,234,Wunderground v.1.15,2013-02-04 16:55:00,
2013-02-04 11:05:00,63.9,58.0,29.99,SSW,196,2.0,2.0,81,0.00,,,0.00,218,Wunderground v.1.15,2013-02-04 17:05:00,
2013-02-04 11:14:00,64.2,57.9,29.99,SSW,208,1.0,2.0,80,0.00,,,0.00,135,Wunderground v.1.15,2013-02-04 17:14:00,
2013-02-04 11:19:00,64.3,58.0,29.98,SSE,168,1.0,1.0,80,0.00,,,0.00,125,Wunderground v.1.15,2013-02-04 17:19:00,
2013-02-04 11:25:00,64.4,58.1,29.98,SSE,167,1.0,2.0,80,0.00,,,0.00,135,Wunderground v.1.15,2013-02-04 17:25:00,
2013-02-04 11:30:00,64.4,58.1,29.98,SSE,167,0.0,0.0,80,0.00,,,0.00,120,Wunderground v.1.15,2013-02-04 17:30:00,
2013-02-04 11:39:00,64.5,58.2,29.98,SSW,192,1.0,1.0,80,0.00,,,0.00,60,Wunderground v.1.15,2013-02-04 17:39:00,
2013-02-04 11:44:00,64.4,58.1,29.98,South,175,0.0,1.0,80,0.00,,,0.00,67,Wunderground v.1.15,2013-02-04 17:44:00,
2013-02-04 11:49:00,64.3,58.3,29.98,South,175,0.0,2.0,81,0.00,,,0.00,88,Wunderground v.1.15,2013-02-04 17:49:00,
2013-02-04 11:55:00,64.3,58.3,29.97,South,176,0.0,2.0,81,0.00,,,0.00,113,Wunderground v.1.15,2013-02-04 17:55:00,
2013-02-04 12:00:00,64.4,58.8,29.97,South,176,0.0,0.0,82,0.00,,,0.00,91,Wunderground v.1.15,2013-02-04 18:00:00,
2013-02-04 12:09:00,64.5,58.9,29.97,South,176,0.0,0.0,82,0.00,,,0.00,95,Wunderground v.1.15,2013-02-04 18:09:00,
2013-02-04 12:19:00,64.6,59.3,29.96,South,176,0.0,0.0,83,0.00,,,0.00,105,Wunderground v.1.15,2013-02-04 18:19:00,
2013-02-04 12:24:00,64.7,59.8,29.95,South,176,0.0,1.0,84,0.00,,,0.00,104,Wunderground v.1.15,2013-02-04 18:24:00,
2013-02-04 12:30:00,64.7,59.8,29.95,South,176,0.0,1.0,84,0.00,,,0.00,125,Wunderground v.1.15,2013-02-04 18:30:00,
2013-02-04 12:39:00,64.9,60.3,29.95,South,175,0.0,0.0,85,0.00,,,0.00,146,Wunderground v.1.15,2013-02-04 18:39:00,
2013-02-04 12:44:00,65.0,60.0,29.95,South,173,0.0,0.0,84,0.00,,,0.00,148,Wunderground v.1.15,2013-02-04 18:44:00,
2013-02-04 12:49:00,65.1,60.5,29.94,South,173,0.0,0.0,85,0.00,,,0.00,130,Wunderground v.1.15,2013-02-04 18:49:00,
2013-02-04 12:54:00,65.3,61.0,29.94,South,173,0.0,0.0,86,0.00,,,0.00,135,Wunderground v.1.15,2013-02-04 18:54:00,
2013-02-04 13:00:00,65.3,60.3,29.94,South,174,0.0,0.0,84,0.00,,,0.00,146,Wunderground v.1.15,2013-02-04 19:00:00,
2013-02-04 13:09:00,65.4,60.4,29.93,South,174,0.0,0.0,84,0.00,,,0.00,125,Wunderground v.1.15,2013-02-04 19:09:00,
2013-02-04 13:14:00,65.4,60.8,29.93,SSE,157,0.0,2.0,85,0.00,,,0.00,114,Wunderground v.1.15,2013-02-04 19:14:00,
2013-02-04 13:19:00,65.4,60.8,29.92,SSE,157,1.0,1.0,85,0.00,,,0.00,125,Wunderground v.1.15,2013-02-04 19:19:00,
2013-02-04 13:25:00,65.5,60.9,29.92,SSE,157,0.0,1.0,85,0.00,,,0.00,98,Wunderground v.1.15,2013-02-04 19:25:00,
2013-02-04 13:29:00,65.4,61.1,29.91,SSE,157,0.0,0.0,86,0.00,,,0.00,95,Wunderground v.1.15,2013-02-04 19:29:00,
2013-02-04 13:39:00,65.5,61.5,29.91,SSE,157,0.0,0.0,87,0.00,,,0.00,193,Wunderground v.1.15,2013-02-04 19:39:00,
2013-02-04 13:44:00,65.6,61.3,29.90,SSE,157,0.0,0.0,86,0.00,,,0.00,213,Wunderground v.1.15,2013-02-04 19:44:00,
2013-02-04 13:50:00,65.8,61.2,29.90,SE,129,0.0,2.0,85,0.00,,,0.00,202,Wunderground v.1.15,2013-02-04 19:50:00,
2013-02-04 13:55:00,66.0,61.0,29.90,ESE,123,1.0,2.0,84,0.00,,,0.00,214,Wunderground v.1.15,2013-02-04 19:55:00,
2013-02-04 14:00:00,66.1,61.5,29.89,ESE,123,1.0,2.0,85,0.00,,,0.00,239,Wunderground v.1.15,2013-02-04 20:00:00,
2013-02-04 14:05:00,66.2,61.2,29.89,ESE,121,1.0,2.0,84,0.00,,,0.00,269,Wunderground v.1.15,2013-02-04 20:05:00,
2013-02-04 14:14:00,66.6,60.9,29.88,ESE,105,2.0,2.0,82,0.00,,,0.00,260,Wunderground v.1.15,2013-02-04 20:14:00,
2013-02-04 14:19:00,66.7,60.7,29.88,SSE,155,2.0,2.0,81,0.00,,,0.00,278,Wunderground v.1.15,2013-02-04 20:19:00,
2013-02-04 14:25:00,66.8,60.8,29.89,SE,128,3.0,8.0,81,0.00,,,0.00,264,Wunderground v.1.15,2013-02-04 20:25:00,
2013-02-04 14:30:00,66.8,60.8,29.88,SSE,152,4.0,4.0,81,0.00,,,0.00,234,Wunderground v.1.15,2013-02-04 20:30:00,
2013-02-04 14:54:00,68.8,62.0,29.87,SSW,202,1.0,3.0,79,0.00,,,0.00,357,Wunderground v.1.15,2013-02-04 20:54:00,
2013-02-04 14:59:00,69.2,61.7,29.87,SSE,166,2.0,4.0,77,0.00,,,0.00,311,Wunderground v.1.15,2013-02-04 20:59:00,
2013-02-04 15:04:00,69.1,61.2,29.87,SE,146,3.0,4.0,76,0.00,,,0.00,381,Wunderground v.1.15,2013-02-04 21:04:00,
2013-02-04 15:09:00,69.5,61.6,29.87,South,170,4.0,6.0,76,0.00,,,0.00,636,Wunderground v.1.15,2013-02-04 21:09:00,
2013-02-04 15:20:00,69.3,61.4,29.87,South,171,3.0,3.0,76,0.00,,,0.00,209,Wunderground v.1.15,2013-02-04 21:20:00,
2013-02-04 15:25:00,69.0,61.1,29.87,SSE,155,3.0,5.0,76,0.00,,,0.00,114,Wunderground v.1.15,2013-02-04 21:25:00,
2013-02-04 15:30:00,68.5,61.0,29.87,SSE,155,2.0,2.0,77,0.00,,,0.00,84,Wunderground v.1.15,2013-02-04 21:30:00,
2013-02-04 15:39:00,67.7,61.0,29.87,SE,144,1.0,1.0,79,0.00,,,0.00,49,Wunderground v.1.15,2013-02-04 21:39:00,
2013-02-04 15:44:00,67.5,61.1,29.87,SSE,150,1.0,1.0,80,0.00,,,0.00,44,Wunderground v.1.15,2013-02-04 21:44:00,
2013-02-04 15:50:00,67.2,60.8,29.87,SSE,167,1.0,3.0,80,0.00,,,0.00,46,Wunderground v.1.15,2013-02-04 21:50:00,
2013-02-04 16:00:00,66.8,60.8,29.87,SSE,166,1.0,1.0,81,0.00,,,0.00,44,Wunderground v.1.15,2013-02-04 22:00:00,
2013-02-04 16:09:00,66.5,60.5,29.87,SSE,161,1.0,1.0,81,0.00,,,0.00,47,Wunderground v.1.15,2013-02-04 22:09:00,
2013-02-04 16:14:00,66.4,60.7,29.87,SSE,161,0.0,1.0,82,0.00,,,0.00,51,Wunderground v.1.15,2013-02-04 22:14:00,
2013-02-04 16:20:00,66.4,60.7,29.86,SSE,156,1.0,1.0,82,0.00,,,0.00,47,Wunderground v.1.15,2013-02-04 22:20:00,
2013-02-04 16:25:00,66.2,60.5,29.86,SSE,160,1.0,1.0,82,0.00,,,0.00,42,Wunderground v.1.15,2013-02-04 22:25:00,
2013-02-04 16:34:00,66.1,60.4,29.86,SSE,149,0.0,1.0,82,0.00,,,0.00,39,Wunderground v.1.15,2013-02-04 22:34:00,
2013-02-04 16:39:00,66.0,60.7,29.86,SE,136,1.0,3.0,83,0.00,,,0.00,33,Wunderground v.1.15,2013-02-04 22:39:00,
2013-02-04 16:44:00,65.9,60.6,29.86,South,170,1.0,3.0,83,0.00,,,0.00,28,Wunderground v.1.15,2013-02-04 22:44:00,
2013-02-04 16:49:00,65.9,60.6,29.86,South,175,1.0,1.0,83,0.00,,,0.00,35,Wunderground v.1.15,2013-02-04 22:49:00,
2013-02-04 16:55:00,65.8,60.5,29.86,SE,146,1.0,1.0,83,0.00,,,0.00,40,Wunderground v.1.15,2013-02-04 22:55:00,
2013-02-04 17:00:00,65.8,60.8,29.86,SSE,165,1.0,4.0,84,0.00,,,0.00,33,Wunderground v.1.15,2013-02-04 23:00:00,
2013-02-04 17:09:00,65.6,60.6,29.86,SSE,158,1.0,1.0,84,0.00,,,0.00,33,Wunderground v.1.15,2013-02-04 23:09:00,
2013-02-04 17:14:00,65.5,60.5,29.86,SE,129,1.0,3.0,84,0.00,,,0.00,32,Wunderground v.1.15,2013-02-04 23:14:00,
2013-02-04 17:20:00,65.5,60.5,29.86,SSE,157,1.0,2.0,84,0.00,,,0.00,21,Wunderground v.1.15,2013-02-04 23:20:00,
2013-02-04 17:25:00,65.4,60.4,29.86,SSE,148,1.0,2.0,84,0.00,,,0.00,12,Wunderground v.1.15,2013-02-04 23:25:00,
2013-02-04 17:34:00,65.3,60.7,29.86,ESE,118,1.0,3.0,85,0.00,,,0.00,0,Wunderground v.1.15,2013-02-04 23:34:00,
2013-02-04 17:39:00,65.2,60.6,29.86,SSE,150,1.0,1.0,85,0.00,,,0.00,0,Wunderground v.1.15,2013-02-04 23:39:00,
2013-02-04 17:50:00,65.1,60.5,29.86,SSE,150,1.0,2.0,85,0.00,,,0.00,0,Wunderground v.1.15,2013-02-04 23:50:00,
2013-02-04 17:59:00,65.0,60.4,29.86,SE,143,1.0,1.0,85,0.00,,,0.00,0,Wunderground v.1.15,2013-02-04 23:59:00,
2013-02-04 18:05:00,64.9,60.6,29.86,SSE,163,1.0,1.0,86,0.00,,,0.00,0,Wunderground v.1.15,2013-02-05 00:05:00,
2013-02-04 18:10:00,64.9,60.6,29.86,SSE,166,1.0,1.0,86,0.00,,,0.00,0,Wunderground v.1.15,2013-02-05 00:10:00,
2013-02-04 18:15:00,64.7,60.4,29.86,SSE,153,1.0,3.0,86,0.00,,,0.00,0,Wunderground v.1.15,2013-02-05 00:15:00,
2013-02-04 18:24:00,64.4,60.8,29.86,SSE,160,1.0,1.0,88,0.00,,,0.00,0,Wunderground v.1.15,2013-02-05 00:24:00,
2013-02-04 18:29:00,64.2,60.6,29.87,SSE,155,0.0,0.0,88,0.00,,,0.00,0,Wunderground v.1.15,2013-02-05 00:29:00,
2013-02-04 18:35:00,64.0,60.7,29.87,SSE,155,0.0,0.0,89,0.00,,,0.00,0,Wunderground v.1.15,2013-02-05 00:35:00,
2013-02-04 18:44:00,63.7,60.4,29.87,SSE,155,0.0,0.0,89,0.00,,,0.00,0,Wunderground v.1.15,2013-02-05 00:44:00,
2013-02-04 18:50:00,63.5,60.5,29.87,SSE,152,0.0,1.0,90,0.00,,,0.00,0,Wunderground v.1.15,2013-02-05 00:50:00,
2013-02-04 19:00:00,63.3,60.3,29.87,SSE,152,0.0,0.0,90,0.00,,,0.00,0,Wunderground v.1.15,2013-02-05 01:00:00,
2013-02-04 19:09:00,63.0,60.3,29.88,SSE,152,0.0,0.0,91,0.00,,,0.00,0,Wunderground v.1.15,2013-02-05 01:09:00,
2013-02-04 19:14:00,62.9,60.2,29.88,SSE,152,0.0,0.0,91,0.00,,,0.00,0,Wunderground v.1.15,2013-02-05 01:14:00,
2013-02-04 19:19:00,62.8,60.4,29.88,SSE,148,0.0,1.0,92,0.00,,,0.00,0,Wunderground v.1.15,2013-02-05 01:19:00,
2013-02-04 19:24:00,62.7,60.3,29.89,SSE,149,0.0,2.0,92,0.00,,,0.00,0,Wunderground v.1.15,2013-02-05 01:24:00,
2013-02-04 19:29:00,62.7,60.3,29.89,SSE,149,0.0,1.0,92,0.00,,,0.00,0,Wunderground v.1.15,2013-02-05 01:29:00,
2013-02-04 19:35:00,62.7,60.3,29.89,SSE,148,0.0,1.0,92,0.00,,,0.00,0,Wunderground v.1.15,2013-02-05 01:35:00,
2013-02-04 19:44:00,62.6,60.2,29.89,SSE,152,0.0,0.0,92,0.00,,,0.00,0,Wunderground v.1.15,2013-02-05 01:44:00,
2013-02-04 19:50:00,62.6,60.2,29.89,SE,140,0.0,2.0,92,0.00,,,0.00,0,Wunderground v.1.15,2013-02-05 01:50:00,
2013-02-04 19:55:00,62.6,60.5,29.89,SSE,148,1.0,2.0,93,0.00,,,0.00,0,Wunderground v.1.15,2013-02-05 01:55:00,
2013-02-04 20:04:00,62.5,60.4,29.89,SSE,153,1.0,1.0,93,0.00,,,0.01,0,Wunderground v.1.15,2013-02-05 02:04:00,
2013-02-04 20:09:00,62.5,60.4,29.89,SSE,152,1.0,1.0,93,0.00,,,0.01,0,Wunderground v.1.15,2013-02-05 02:09:00,
2013-02-04 20:14:00,62.4,60.3,29.89,SSE,152,0.0,1.0,93,0.00,,,0.01,0,Wunderground v.1.15,2013-02-05 02:14:00,
2013-02-04 20:19:00,62.4,60.3,29.89,SSE,152,0.0,1.0,93,0.00,,,0.01,0,Wunderground v.1.15,2013-02-05 02:19:00,
2013-02-04 20:24:00,62.3,60.2,29.89,SSE,154,0.0,1.0,93,0.00,,,0.01,0,Wunderground v.1.15,2013-02-05 02:24:00,
2013-02-04 20:29:00,62.3,60.2,29.89,SSE,153,0.0,1.0,93,0.00,,,0.01,0,Wunderground v.1.15,2013-02-05 02:29:00,
2013-02-04 20:35:00,62.3,60.2,29.89,SSE,154,0.0,1.0,93,0.00,,,0.01,0,Wunderground v.1.15,2013-02-05 02:35:00,
2013-02-04 20:44:00,62.4,60.7,29.90,SSE,150,1.0,1.0,94,0.00,,,0.01,0,Wunderground v.1.15,2013-02-05 02:44:00,
2013-02-04 20:50:00,62.4,60.7,29.90,SE,138,0.0,0.0,94,0.00,,,0.01,0,Wunderground v.1.15,2013-02-05 02:50:00,
2013-02-04 21:00:00,62.4,60.7,29.90,SE,138,0.0,0.0,94,0.00,,,0.01,0,Wunderground v.1.15,2013-02-05 03:00:00,
2013-02-04 21:09:00,62.4,60.9,29.90,SE,138,1.0,1.0,95,0.11,,,0.04,0,Wunderground v.1.15,2013-02-05 03:09:00,
2013-02-04 21:14:00,62.3,60.8,29.90,SE,139,1.0,2.0,95,0.09,,,0.04,0,Wunderground v.1.15,2013-02-05 03:14:00,
2013-02-04 21:24:00,62.1,60.7,29.90,SE,137,0.0,0.0,95,0.04,,,0.04,0,Wunderground v.1.15,2013-02-05 03:24:00,
2013-02-04 21:34:00,62.0,60.6,29.90,SE,143,0.0,0.0,95,0.00,,,0.04,0,Wunderground v.1.15,2013-02-05 03:34:00,
2013-02-04 21:39:00,62.0,60.6,29.90,SE,144,1.0,1.0,95,0.00,,,0.05,0,Wunderground v.1.15,2013-02-05 03:39:00,
2013-02-04 21:44:00,62.0,60.8,29.90,SSE,155,1.0,1.0,96,0.00,,,0.05,0,Wunderground v.1.15,2013-02-05 03:44:00,
2013-02-04 21:50:00,61.9,60.7,29.90,SE,145,1.0,1.0,96,0.00,,,0.05,0,Wunderground v.1.15,2013-02-05 03:50:00,
2013-02-04 21:59:00,61.9,60.7,29.90,SE,134,0.0,2.0,96,0.04,,,0.06,0,Wunderground v.1.15,2013-02-05 03:59:00,
2013-02-04 22:04:00,61.9,60.7,29.90,SSE,160,1.0,2.0,96,0.04,,,0.06,0,Wunderground v.1.15,2013-02-05 04:04:00,
2013-02-04 22:09:00,61.9,60.7,29.90,SSE,157,1.0,1.0,96,0.00,,,0.06,0,Wunderground v.1.15,2013-02-05 04:09:00,
2013-02-04 22:14:00,61.9,60.7,29.90,SSE,161,1.0,1.0,96,0.00,,,0.07,0,Wunderground v.1.15,2013-02-05 04:14:00,
2013-02-04 22:20:00,61.9,60.7,29.90,SSE,161,1.0,1.0,96,0.11,,,0.08,0,Wunderground v.1.15,2013-02-05 04:20:00,
2013-02-04 22:29:00,61.9,61.0,29.91,SSE,163,0.0,0.0,97,0.26,,,0.13,0,Wunderground v.1.15,2013-02-05 04:29:00,
2013-02-04 22:34:00,61.9,61.0,29.91,SSE,163,0.0,1.0,97,0.49,,,0.18,0,Wunderground v.1.15,2013-02-05 04:34:00,
2013-02-04 22:39:00,61.9,61.0,29.91,South,184,0.0,3.0,97,0.14,,,0.19,0,Wunderground v.1.15,2013-02-05 04:39:00,
2013-02-04 22:44:00,61.9,61.0,29.91,South,184,1.0,3.0,97,0.95,,,0.23,0,Wunderground v.1.15,2013-02-05 04:44:00,
2013-02-04 22:50:00,61.9,61.0,29.91,South,182,1.0,3.0,97,0.51,,,0.29,0,Wunderground v.1.15,2013-02-05 04:50:00,
2013-02-04 22:55:00,61.9,61.0,29.91,South,182,0.0,3.0,97,0.10,,,0.29,0,Wunderground v.1.15,2013-02-05 04:55:00,
2013-02-04 23:00:00,61.9,61.0,29.91,South,182,0.0,0.0,97,0.09,,,0.30,0,Wunderground v.1.15,2013-02-05 05:00:00,
2013-02-04 23:04:00,61.9,61.0,29.90,South,181,0.0,1.0,97,0.06,,,0.30,0,Wunderground v.1.15,2013-02-05 05:04:00,
2013-02-04 23:09:00,61.9,61.0,29.90,SE,146,1.0,1.0,97,0.04,,,0.30,0,Wunderground v.1.15,2013-02-05 05:09:00,
2013-02-04 23:14:00,61.8,60.9,29.90,SE,146,0.0,1.0,97,0.00,,,0.30,0,Wunderground v.1.15,2013-02-05 05:14:00,
2013-02-04 23:20:00,61.8,60.9,29.90,SSE,150,0.0,0.0,97,0.00,,,0.30,0,Wunderground v.1.15,2013-02-05 05:20:00,
2013-02-04 23:30:00,61.7,60.8,29.90,SSE,150,0.0,0.0,97,0.00,,,0.30,0,Wunderground v.1.15,2013-02-05 05:30:00,
2013-02-04 23:39:00,61.6,60.7,29.90,SSE,150,0.0,0.0,97,0.00,,,0.30,0,Wunderground v.1.15,2013-02-05 05:39:00,
2013-02-04 23:44:00,61.6,60.7,29.90,SSE,150,0.0,0.0,97,0.00,,,0.30,0,Wunderground v.1.15,2013-02-05 05:44:00,
2013-02-04 23:50:00,61.6,60.7,29.90,SSE,150,0.0,0.0,97,0.00,,,0.30,0,Wunderground v.1.15,2013-02-05 05:50:00,
2013-02-04 23:59:00,61.5,60.6,29.89,SSE,150,0.0,0.0,97,0.00,,,0.30,0,Wunderground v.1.15,2013-02-05 05:59:00,